Time;durP1;ratioP1;P1;durP2;ratioP2;P2;SDS_P1;SDS_P2;PMS_P1;PMS_P2;Temp;Humidity;BMP_temperature;BMP_pressure;BME280_temperature;BME280_humidity;BME280_pressure;Samples;Min_cycle;Max_cycle;Signal;HPM_P1;HPM_P2
2022/04/25 00:00:03;;;;;;;;;;;;;;;;;;5030054;28;19921;-77
2022/04/25 00:02:29;;;;;;;;;;;;;;;;;;5029839;28;19994;-76
2022/04/25 00:04:55;;;;;;;;;;;;;;;;;;5028952;28;20226;-78
2022/04/25 00:07:21;;;;;;;;;;;;;;;;;;5029443;28;20031;-78
2022/04/25 00:09:47;;;;;;;;;;;;;;;;;;5028552;28;19921;-84
2022/04/25 00:12:13;;;;;;;;;;;;;;;;;;5028372;28;19921;-75
2022/04/25 00:14:39;;;;;;;;;;;;;;;;;;5028259;28;19939;-84
2022/04/25 00:17:05;;;;;;;;;;;;;;;;;;5028167;28;19976;-76
2022/04/25 00:19:31;;;;;;;;;;;;;;;;;;5029847;28;20030;-76
2022/04/25 00:21:57;;;;;;;;;;;;;;;;;;5029734;28;19985;-76
2022/04/25 00:24:23;;;;;;;;;;;;;;;;;;5029922;28;19931;-75
2022/04/25 00:26:49;;;;;;;;;;;;;;;;;;5029683;28;19955;-76
2022/04/25 00:29:15;;;;;;;;;;;;;;;;;;5029738;28;19921;-76
2022/04/25 00:31:41;;;;;;;;;;;;;;;;;;5029676;28;19921;-77
2022/04/25 00:34:07;;;;;;;;;;;;;;;;;;5029434;28;20345;-76
2022/04/25 00:36:33;;;;;;;;;;;;;;;;;;5029622;28;19944;-76
2022/04/25 00:38:59;;;;;;;;;;;;;;;;;;5029671;28;20323;-78
2022/04/25 00:41:25;;;;;;;;;;;;;;;;;;5029254;28;19921;-76
2022/04/25 00:43:51;;;;;;;;;;;;;;;;;;5029566;28;19925;-78
2022/04/25 00:46:17;;;;;;;;;;;;;;;;;;5029403;28;19987;-75
2022/04/25 00:48:43;;;;;;;;;;;;;;;;;;5029301;28;20402;-77
2022/04/25 00:51:09;;;;;;;;;;;;;;;;;;5029345;28;20225;-76
2022/04/25 00:53:35;;;;;;;;;;;;;;;;;;5029113;28;20408;-78
2022/04/25 00:56:01;;;;;;;;;;;;;;;;;;5029485;28;19932;-76
2022/04/25 00:58:27;;;;;;;;;;;;;;;;;;5028208;28;19979;-81
2022/04/25 01:00:53;;;;;;;;;;;;;;;;;;5028950;28;20210;-77
2022/04/25 01:03:18;;;;;;;;;;;;;;;;;;5029288;28;20003;-75
2022/04/25 01:05:44;;;;;;;;;;;;;;;;;;5029278;28;19999;-77
2022/04/25 01:08:10;;;;;;;;;;;;;;;;;;5027353;28;20013;-79
2022/04/25 01:10:36;;;;;;;;;;;;;;;;;;5029313;28;19921;-75
2022/04/25 01:13:02;;;;;;;;;;;;;;;;;;5029108;28;19925;-78
2022/04/25 01:15:30;;;;;;;;;;;;;;;;;;5028917;28;20004;-77
2022/04/25 01:17:56;;;;;;;;;;;;;;;;;;5029582;28;19997;-78
2022/04/25 01:20:22;;;;;;;;;;;;;;;;;;5031767;28;20004;-75
2022/04/25 01:22:48;;;;;;;;;;;;;;;;;;5033261;28;20019;-78
2022/04/25 01:27:58;;;;;;;;;;;;;;;;;;5033137;28;19994;-80
2022/04/25 01:30:24;;;;;;;;;;;;;;;;;;5031448;28;19925;-77
2022/04/25 01:32:52;;;;;;;;;;;;;;;;;;5032932;28;20038;-79
2022/04/25 01:35:19;;;;;;;;;;;;;;;;;;5033026;28;19925;-79
2022/04/25 01:37:45;;;;;;;;;;;;;;;;;;5033041;28;19929;-80
2022/04/25 01:40:10;;;;;;;;;;;;;;;;;;5032820;28;20338;-78
2022/04/25 01:42:36;;;;;;;;;;;;;;;;;;5032641;28;20017;-77
2022/04/25 01:45:03;;;;;;;;;;;;;;;;;;5032583;28;20016;-77
2022/04/25 01:47:29;;;;;;;;;;;;;;;;;;5031001;28;20003;-77
2022/04/25 01:49:55;;;;;;;;;;;;;;;;;;5031646;28;20012;-77
2022/04/25 01:52:21;;;;;;;;;;;;;;;;;;5032487;28;19920;-77
2022/04/25 01:54:47;;;;;;;;;;;;;;;;;;5032733;28;19928;-80
2022/04/25 01:57:13;;;;;;;;;;;;;;;;;;5032242;28;20238;-78
2022/04/25 01:59:39;;;;;;;;;;;;;;;;;;5031020;28;19921;-78
2022/04/25 02:02:05;;;;;;;;;;;;;;;;;;5030901;28;19924;-78
2022/04/25 02:04:31;;;;;;;;;;;;;;;;;;5031709;28;19960;-77
2022/04/25 02:06:57;;;;;;;;;;;;;;;;;;5032352;28;19928;-78
2022/04/25 02:09:23;;;;;;;;;;;;;;;;;;5032396;28;19940;-78
2022/04/25 02:11:49;;;;;;;;;;;;;;;;;;5031904;28;19950;-83
2022/04/25 02:14:15;;;;;;;;;;;;;;;;;;5032077;28;19921;-79
2022/04/25 02:16:41;;;;;;;;;;;;;;;;;;5032031;28;19929;-80
2022/04/25 02:19:07;;;;;;;;;;;;;;;;;;5031870;28;20059;-77
2022/04/25 02:21:33;;;;;;;;;;;;;;;;;;5031805;28;20021;-78
2022/04/25 02:23:59;;;;;;;;;;;;;;;;;;5031514;28;19947;-79
2022/04/25 02:26:25;;;;;;;;;;;;;;;;;;5030570;28;20023;-76
2022/04/25 02:28:54;;;;;;;;;;;;;;;;;;5031824;28;20043;-76
2022/04/25 02:31:20;;;;;;;;;;;;;;;;;;5029774;28;20233;-76
2022/04/25 02:33:46;;;;;;;;;;;;;;;;;;5031810;28;19944;-84
2022/04/25 02:36:13;;;;;;;;;;;;;;;;;;5031553;28;20392;-75
2022/04/25 02:38:39;;;;;;;;;;;;;;;;;;5029860;28;19921;-76
2022/04/25 02:41:04;;;;;;;;;;;;;;;;;;5030120;28;20318;-75
2022/04/25 02:43:31;;;;;;;;;;;;;;;;;;5031291;28;19957;-73
2022/04/25 02:45:57;;;;;;;;;;;;;;;;;;5031146;28;20253;-77
2022/04/25 02:48:23;;;;;;;;;;;;;;;;;;5029846;28;19997;-75
2022/04/25 02:50:49;;;;;;;;;;;;;;;;;;5031111;28;19921;-79
2022/04/25 02:53:15;;;;;;;;;;;;;;;;;;5031471;28;19969;-76
2022/04/25 02:55:41;;;;;;;;;;;;;;;;;;5031105;28;19927;-76
2022/04/25 02:58:08;;;;;;;;;;;;;;;;;;5031356;28;19921;-77
2022/04/25 03:00:34;;;;;;;;;;;;;;;;;;5031072;28;19929;-75
2022/04/25 03:03:00;;;;;;;;;;;;;;;;;;5031044;28;20371;-78
2022/04/25 03:05:26;;;;;;;;;;;;;;;;;;5030934;28;20258;-77
2022/04/25 03:07:52;;;;;;;;;;;;;;;;;;5030941;28;19986;-77
2022/04/25 03:10:18;;;;;;;;;;;;;;;;;;5029673;28;19921;-78
2022/04/25 03:12:44;;;;;;;;;;;;;;;;;;5030955;28;20024;-77
2022/04/25 03:15:10;;;;;;;;;;;;;;;;;;5031011;28;19939;-78
2022/04/25 03:17:36;;;;;;;;;;;;;;;;;;5030261;28;20031;-75
2022/04/25 03:20:02;;;;;;;;;;;;;;;;;;5030994;28;19920;-78
2022/04/25 03:22:28;;;;;;;;;;;;;;;;;;5030319;28;20375;-77
2022/04/25 03:24:54;;;;;;;;;;;;;;;;;;5030542;28;19925;-74
2022/04/25 03:27:20;;;;;;;;;;;;;;;;;;5030433;28;19924;-77
2022/04/25 03:29:46;;;;;;;;;;;;;;;;;;5030213;28;20355;-76
2022/04/25 03:32:12;;;;;;;;;;;;;;;;;;5030344;28;20215;-76
2022/04/25 03:34:38;;;;;;;;;;;;;;;;;;5030495;28;19986;-75
2022/04/25 03:37:04;;;;;;;;;;;;;;;;;;5028993;28;20031;-77
2022/04/25 03:39:30;;;;;;;;;;;;;;;;;;5030688;28;20372;-80
2022/04/25 03:41:56;;;;;;;;;;;;;;;;;;5029554;28;20015;-75
2022/04/25 03:44:22;;;;;;;;;;;;;;;;;;5030294;28;19921;-79
2022/04/25 03:46:48;;;;;;;;;;;;;;;;;;5030140;28;20333;-75
2022/04/25 03:49:13;;;;;;;;;;;;;;;;;;5030149;28;20329;-77
2022/04/25 03:51:39;;;;;;;;;;;;;;;;;;5030115;28;20308;-74
2022/04/25 03:54:05;;;;;;;;;;;;;;;;;;5030264;28;19943;-77
2022/04/25 03:59:16;;;;;;;;;;;;;;;;;;5030335;28;19925;-72
2022/04/25 04:01:42;;;;;;;;;;;;;;;;;;5028431;28;19921;-74
2022/04/25 04:04:08;;;;;;;;;;;;;;;;;;5030263;28;19921;-74
2022/04/25 04:06:37;;;;;;;;;;;;;;;;;;5030162;28;20329;-82
2022/04/25 04:09:44;;;;;;;;;;;;;;;;;;5028540;28;19983;-82
2022/04/25 04:11:48;;;;;;;;;;;;;;;;;;5028368;28;19972;-83
2022/04/25 04:14:14;;;;;;;;;;;;;;;;;;5030023;28;20005;-81
2022/04/25 04:16:42;;;;;;;;;;;;;;;;;;5029679;28;19921;-79
2022/04/25 04:19:08;;;;;;;;;;;;;;;;;;5028547;28;20341;-87
2022/04/25 04:21:34;;;;;;;;;;;;;;;;;;5029742;28;20020;-81
2022/04/25 04:24:01;;;;;;;;;;;;;;;;;;5029619;28;19967;-77
2022/04/25 04:26:27;;;;;;;;;;;;;;;;;;5029792;28;19931;-79
2022/04/25 04:28:53;;;;;;;;;;;;;;;;;;5029468;28;19921;-75
2022/04/25 04:31:19;;;;;;;;;;;;;;;;;;5029501;28;20349;-79
2022/04/25 04:33:45;;;;;;;;;;;;;;;;;;5029953;28;19936;-75
2022/04/25 04:36:22;;;;;;;;;;;;;;;;;;5029749;28;20296;-78
2022/04/25 04:38:48;;;;;;;;;;;;;;;;;;5029896;28;19951;-78
2022/04/25 04:41:14;;;;;;;;;;;;;;;;;;5028149;28;19921;-85
2022/04/25 04:43:40;;;;;;;;;;;;;;;;;;5029827;28;19921;-83
2022/04/25 04:46:06;;;;;;;;;;;;;;;;;;5028696;28;20333;-84
2022/04/25 04:48:31;;;;;;;;;;;;;;;;;;5029927;28;19995;-83
2022/04/25 04:50:58;;;;;;;;;;;;;;;;;;5030192;28;19968;-83
2022/04/25 04:53:24;;;;;;;;;;;;;;;;;;5031023;28;19928;-80
2022/04/25 04:55:51;;;;;;;;;;;;;;;;;;5016166;28;19921;-80
2022/04/25 04:58:17;;;;;;;;;;;;;;;;;;5034161;28;19921;-83
2022/04/25 05:00:44;;;;;;;;;;;;;;;;;;5033615;28;19928;-81
2022/04/25 05:03:11;;;;;;;;;;;;;;;;;;5033398;28;19928;-78
2022/04/25 05:05:37;;;;;;;;;;;;;;;;;;5033546;28;19932;-79
2022/04/25 05:08:03;;;;;;;;;;;;;;;;;;5033187;28;19921;-81
2022/04/25 05:10:28;;;;;;;;;;;;;;;;;;5033654;28;19940;-82
2022/04/25 05:12:54;;;;;;;;;;;;;;;;;;5031456;28;19925;-82
2022/04/25 05:15:20;;;;;;;;;;;;;;;;;;5031496;28;19921;-80
2022/04/25 05:17:50;;;;;;;;;;;;;;;;;;5031906;28;19939;-80
2022/04/25 05:20:16;;;;;;;;;;;;;;;;;;5032852;28;19921;-77
2022/04/25 05:22:44;;;;;;;;;;;;;;;;;;5032517;28;19921;-76
2022/04/25 05:25:10;;;;;;;;;;;;;;;;;;5031473;28;20403;-80
2022/04/25 05:27:38;;;;;;;;;;;;;;;;;;5031369;28;19924;-82
2022/04/25 05:30:04;;;;;;;;;;;;;;;;;;5032773;28;20073;-79
2022/04/25 05:32:30;;;;;;;;;;;;;;;;;;5032237;28;20008;-76
2022/04/25 05:34:56;;;;;;;;;;;;;;;;;;5032475;28;19924;-78
2022/04/25 05:37:22;;;;;;;;;;;;;;;;;;5032802;28;19960;-75
2022/04/25 05:39:47;;;;;;;;;;;;;;;;;;5032624;28;19921;-75
2022/04/25 05:42:13;;;;;;;;;;;;;;;;;;5031145;28;19932;-78
2022/04/25 05:44:39;;;;;;;;;;;;;;;;;;5031553;28;19969;-75
2022/04/25 05:47:05;;;;;;;;;;;;;;;;;;5032262;28;19925;-82
2022/04/25 05:52:16;;;;;;;;;;;;;;;;;;5032780;28;19921;-86
2022/04/25 05:54:42;;;;;;;;;;;;;;;;;;5033569;28;20028;-76
2022/04/25 05:57:08;;;;;;;;;;;;;;;;;;5033287;28;19944;-78
2022/04/25 05:59:34;;;;;;;;;;;;;;;;;;5032658;28;19939;-81
2022/04/25 06:02:00;;;;;;;;;;;;;;;;;;5033052;28;19929;-77
2022/04/25 06:04:26;;;;;;;;;;;;;;;;;;5033136;28;19932;-81
2022/04/25 06:06:52;;;;;;;;;;;;;;;;;;5032185;28;19921;-77
2022/04/25 06:09:19;;;;;;;;;;;;;;;;;;5032513;28;19986;-81
2022/04/25 06:11:45;;;;;;;;;;;;;;;;;;5032450;28;20298;-79
2022/04/25 06:14:11;;;;;;;;;;;;;;;;;;5032122;28;19996;-79
2022/04/25 06:16:37;;;;;;;;;;;;;;;;;;5032504;28;19981;-82
2022/04/25 06:19:03;;;;;;;;;;;;;;;;;;5032204;28;20056;-76
2022/04/25 06:21:29;;;;;;;;;;;;;;;;;;5032294;28;19925;-78
2022/04/25 06:23:55;;;;;;;;;;;;;;;;;;5033455;28;19997;-80
2022/04/25 06:26:21;;;;;;;;;;;;;;;;;;5032251;28;19925;-79
2022/04/25 06:28:47;;;;;;;;;;;;;;;;;;5031795;28;19921;-81
2022/04/25 06:31:13;;;;;;;;;;;;;;;;;;5031858;28;19921;-85
2022/04/25 06:33:39;;;;;;;;;;;;;;;;;;5031854;28;19990;-72
2022/04/25 06:36:05;;;;;;;;;;;;;;;;;;5031851;28;19929;-79
2022/04/25 06:38:31;;;;;;;;;;;;;;;;;;5031333;28;20334;-83
2022/04/25 06:40:57;;;;;;;;;;;;;;;;;;5029809;28;19932;-75
2022/04/25 06:43:23;;;;;;;;;;;;;;;;;;5030045;28;19966;-80
2022/04/25 06:45:49;;;;;;;;;;;;;;;;;;5031244;28;19932;-79
2022/04/25 06:48:15;;;;;;;;;;;;;;;;;;5031555;28;19929;-75
2022/04/25 06:50:41;;;;;;;;;;;;;;;;;;5032024;28;19928;-79
2022/04/25 06:53:07;;;;;;;;;;;;;;;;;;5033370;28;19987;-77
2022/04/25 06:55:34;;;;;;;;;;;;;;;;;;5031517;28;20031;-74
2022/04/25 06:58:00;;;;;;;;;;;;;;;;;;5030979;28;19921;-80
2022/04/25 07:00:27;;;;;;;;;;;;;;;;;;5031844;28;19928;-80
2022/04/25 07:02:53;;;;;;;;;;;;;;;;;;5031169;28;19993;-75
2022/04/25 07:05:19;;;;;;;;;;;;;;;;;;5029508;28;19921;-75
2022/04/25 07:07:46;;;;;;;;;;;;;;;;;;5030720;28;19927;-83
2022/04/25 07:10:12;;;;;;;;;;;;;;;;;;5029437;28;19921;-82
2022/04/25 07:12:38;;;;;;;;;;;;;;;;;;5030959;28;19988;-75
2022/04/25 07:15:04;;;;;;;;;;;;;;;;;;5030923;28;20238;-72
2022/04/25 07:17:30;;;;;;;;;;;;;;;;;;5029422;28;20012;-74
2022/04/25 07:19:56;;;;;;;;;;;;;;;;;;5029478;28;19930;-80
2022/04/25 07:30:35;;;;;;;;;;;;;;;;;;5030823;28;20015;-85
2022/04/25 07:33:01;;;;;;;;;;;;;;;;;;5029200;28;20008;-80
2022/04/25 07:35:27;;;;;;;;;;;;;;;;;;5030580;28;20008;-84
2022/04/25 07:37:59;;;;;;;;;;;;;;;;;;5120421;27;19963;-80
2022/04/25 07:40:25;;;;;;;;;;;;;;;;;;5105278;28;20357;-83
2022/04/25 07:42:54;;;;;;;;;;;;;;;;;;5106947;28;19924;-76
2022/04/25 07:45:20;;;;;;;;;;;;;;;;;;5106455;28;19924;-78
2022/04/25 07:47:46;;;;;;;;;;;;;;;;;;5106088;27;20403;-83
2022/04/25 07:50:12;;;;;;;;;;;;;;;;;;5106025;28;19991;-77
2022/04/25 07:52:38;;;;;;;;;;;;;;;;;;5106485;28;20007;-88
2022/04/25 07:55:04;;;;;;;;;;;;;;;;;;5106687;28;20019;-82
2022/04/25 07:57:30;;;;;;;;;;;;;;;;;;5105972;28;20371;-81
2022/04/25 07:59:56;;;;;;;;;;;;;;;;;;5104822;28;19947;-84
2022/04/25 08:02:23;;;;;;;;;;;;;;;;;;5106109;28;20281;-87
2022/04/25 08:04:49;;;;;;;;;;;;;;;;;;5105942;28;19935;-75
2022/04/25 08:07:14;;;;;;;;;;;;;;;;;;5105578;28;19947;-79
2022/04/25 08:09:40;;;;;;;;;;;;;;;;;;5136806;27;19924;-83
2022/04/25 08:20:21;;;;;;;;;;;;;;;;;;5106559;28;20295;-76
2022/04/25 08:22:47;;;;;;;;;;;;;;;;;;5106526;28;19943;-84
2022/04/25 08:25:12;;;;;;;;;;;;;;;;;;5106311;28;20014;-71
2022/04/25 08:27:38;;;;;;;;;;;;;;;;;;5105984;28;20011;-79
2022/04/25 08:30:04;;;;;;;;;;;;;;;;;;5105849;28;20324;-77
2022/04/25 08:32:33;;;;;;;;;;;;;;;;;;5104360;28;20309;-84
2022/04/25 08:34:59;;;;;;;;;;;;;;;;;;5105993;28;20069;-72
2022/04/25 08:37:24;;;;;;;;;;;;;;;;;;5103694;28;20015;-76
2022/04/25 08:39:50;;;;;;;;;;;;;;;;;;5106123;28;19924;-75
2022/04/25 08:42:16;;;;;;;;;;;;;;;;;;5104272;28;19928;-78
2022/04/25 08:44:42;;;;;;;;;;;;;;;;;;5138068;27;19938;-74
2022/04/25 08:47:08;;;;;;;;;;;;;;;;;;5105405;28;20038;-79
2022/04/25 08:49:35;;;;;;;;;;;;;;;;;;5091038;28;19924;-85
2022/04/25 08:52:01;;;;;;;;;;;;;;;;;;5091450;28;19935;-78
2022/04/25 08:54:29;;;;;;;;;;;;;;;;;;5091783;28;19947;-90
2022/04/25 08:56:55;;;;;;;;;;;;;;;;;;5092190;28;19965;-83
2022/04/25 08:59:21;;;;;;;;;;;;;;;;;;5091381;28;20366;-78
2022/04/25 09:01:47;;;;;;;;;;;;;;;;;;5092523;28;19988;-80
2022/04/25 09:04:13;;;;;;;;;;;;;;;;;;5083990;28;20225;-76
2022/04/25 09:06:39;;;;;;;;;;;;;;;;;;5091697;28;19924;-82
2022/04/25 09:09:05;;;;;;;;;;;;;;;;;;5092185;28;20456;-80
2022/04/25 09:14:15;;;;;;;;;;;;;;;;;;5092288;28;19936;-80
2022/04/25 09:16:41;;;;;;;;;;;;;;;;;;5091274;28;19930;-85
2022/04/25 09:19:07;;;;;;;;;;;;;;;;;;5092111;28;20359;-84
2022/04/25 09:21:33;;;;;;;;;;;;;;;;;;5092515;28;20267;-82
2022/04/25 09:23:59;;;;;;;;;;;;;;;;;;5091725;28;20322;-83
2022/04/25 09:26:29;;;;;;;;;;;;;;;;;;5090827;28;19943;-80
2022/04/25 09:28:54;;;;;;;;;;;;;;;;;;5089236;28;20350;-79
2022/04/25 09:31:22;;;;;;;;;;;;;;;;;;5090852;28;19931;-81
2022/04/25 09:33:48;;;;;;;;;;;;;;;;;;5089828;28;19924;-89
2022/04/25 09:36:14;;;;;;;;;;;;;;;;;;5090887;28;19927;-83
2022/04/25 09:38:40;;;;;;;;;;;;;;;;;;5091685;28;19924;-76
2022/04/25 09:41:06;;;;;;;;;;;;;;;;;;5091313;28;20011;-83
2022/04/25 09:43:32;;;;;;;;;;;;;;;;;;5091038;28;20003;-87
2022/04/25 09:45:58;;;;;;;;;;;;;;;;;;5090759;28;19924;-86
2022/04/25 09:48:24;;;;;;;;;;;;;;;;;;5089155;28;20389;-84
2022/04/25 09:50:50;;;;;;;;;;;;;;;;;;5090908;28;20336;-78
2022/04/25 09:53:16;;;;;;;;;;;;;;;;;;5091585;28;19999;-83
2022/04/25 09:55:42;;;;;;;;;;;;;;;;;;5090263;28;19938;-81
2022/04/25 09:58:08;;;;;;;;;;;;;;;;;;5090703;28;19924;-80
2022/04/25 10:00:36;;;;;;;;;;;;;;;;;;5087488;28;20336;-86
2022/04/25 10:03:02;;;;;;;;;;;;;;;;;;5104935;28;20018;-81
2022/04/25 10:05:28;;;;;;;;;;;;;;;;;;5088349;28;19924;-85
2022/04/25 10:07:54;;;;;;;;;;;;;;;;;;5089043;28;20008;-83
2022/04/25 10:10:20;;;;;;;;;;;;;;;;;;5082173;28;19924;-82
2022/04/25 10:12:46;;;;;;;;;;;;;;;;;;5088361;28;19954;-83
2022/04/25 10:15:12;;;;;;;;;;;;;;;;;;5087857;28;19927;-79
2022/04/25 10:17:38;;;;;;;;;;;;;;;;;;5089334;28;19924;-82
2022/04/25 10:20:04;;;;;;;;;;;;;;;;;;5088369;28;19924;-84
2022/04/25 10:22:30;;;;;;;;;;;;;;;;;;5088040;28;19978;-86
2022/04/25 10:24:56;;;;;;;;;;;;;;;;;;5090527;28;19988;-89
2022/04/25 10:27:24;;;;;;;;;;;;;;;;;;5090067;28;19943;-78
2022/04/25 10:29:50;;;;;;;;;;;;;;;;;;5088363;28;19935;-87
2022/04/25 10:32:19;;;;;;;;;;;;;;;;;;5117788;27;20315;-76
2022/04/25 10:34:45;;;;;;;;;;;;;;;;;;5089648;28;19924;-81
2022/04/25 10:37:11;;;;;;;;;;;;;;;;;;5090330;28;20323;-77
2022/04/25 10:39:37;;;;;;;;;;;;;;;;;;5089635;28;19924;-83
2022/04/25 10:44:48;;;;;;;;;;;;;;;;;;5089476;28;19928;-75
2022/04/25 10:47:15;;;;;;;;;;;;;;;;;;5121951;27;20023;-87
2022/04/25 10:49:42;;;;;;;;;;;;;;;;;;5087966;28;19977;-72
2022/04/25 10:52:09;;;;;;;;;;;;;;;;;;5089346;28;19994;-73
2022/04/25 10:54:36;;;;;;;;;;;;;;;;;;5091081;28;19931;-82
2022/04/25 10:57:02;;;;;;;;;;;;;;;;;;5089425;28;19947;-76
2022/04/25 10:59:28;;;;;;;;;;;;;;;;;;5089126;28;19924;-78
2022/04/25 11:01:56;;;;;;;;;;;;;;;;;;5089286;28;19924;-77
2022/04/25 11:04:23;;;;;;;;;;;;;;;;;;5089193;28;20012;-79
2022/04/25 11:06:48;;;;;;;;;;;;;;;;;;5089230;28;19936;-73
2022/04/25 11:09:14;;;;;;;;;;;;;;;;;;5088193;28;20006;-79
2022/04/25 11:11:40;;;;;;;;;;;;;;;;;;5088197;28;19943;-79
2022/04/25 11:14:07;;;;;;;;;;;;;;;;;;5087592;28;19924;-76
2022/04/25 11:16:33;;;;;;;;;;;;;;;;;;5089273;28;19979;-72
2022/04/25 11:18:59;;;;;;;;;;;;;;;;;;5121482;27;19924;-87
2022/04/25 11:21:25;;;;;;;;;;;;;;;;;;5089198;28;20003;-76
2022/04/25 11:23:51;;;;;;;;;;;;;;;;;;5088321;28;19943;-75
2022/04/25 11:26:17;;;;;;;;;;;;;;;;;;5088989;28;20094;-78
2022/04/25 11:28:43;;;;;;;;;;;;;;;;;;5088678;28;19928;-87
2022/04/25 11:31:10;;;;;;;;;;;;;;;;;;5089092;28;19970;-77
2022/04/25 11:33:36;;;;;;;;;;;;;;;;;;5088871;28;19955;-75
2022/04/25 11:36:01;;;;;;;;;;;;;;;;;;5089021;28;19924;-77
2022/04/25 11:39:50;;;;;;;;;;;;;;;;;;5086740;28;19924;-81
2022/04/25 11:41:13;;;;;;;;;;;;;;;;;;5089142;28;20403;-75
2022/04/25 11:43:41;;;;;;;;;;;;;;;;;;5087227;28;20041;-72
2022/04/25 11:46:07;;;;;;;;;;;;;;;;;;5087825;28;19925;-73
2022/04/25 11:48:33;;;;;;;;;;;;;;;;;;5088233;28;20069;-85
2022/04/25 11:50:59;;;;;;;;;;;;;;;;;;5088904;28;19936;-70
2022/04/25 11:53:25;;;;;;;;;;;;;;;;;;5088576;28;19967;-69
2022/04/25 11:55:51;;;;;;;;;;;;;;;;;;5088502;28;19960;-66
2022/04/25 11:58:17;;;;;;;;;;;;;;;;;;5086099;28;20018;-73
2022/04/25 12:00:43;;;;;;;;;;;;;;;;;;5088211;28;20336;-66
2022/04/25 12:03:09;;;;;;;;;;;;;;;;;;5088968;28;20367;-69
2022/04/25 12:05:35;;;;;;;;;;;;;;;;;;5086580;28;19928;-69
2022/04/25 12:16:15;;;;;;;;;;;;;;;;;;5087126;28;20343;-70
2022/04/25 12:18:40;;;;;;;;;;;;;;;;;;5086323;28;20067;-69
2022/04/25 12:21:08;;;;;;;;;;;;;;;;;;5088509;28;20015;-72
2022/04/25 12:23:34;;;;;;;;;;;;;;;;;;5122738;27;20006;-77
2022/04/25 12:26:03;;;;;;;;;;;;;;;;;;5092005;28;19924;-69
2022/04/25 12:28:30;;;;;;;;;;;;;;;;;;5090557;28;20432;-75
2022/04/25 12:30:56;;;;;;;;;;;;;;;;;;5092033;28;19964;-70
2022/04/25 12:33:22;;;;;;;;;;;;;;;;;;5092385;28;20423;-73
2022/04/25 12:35:48;;;;;;;;;;;;;;;;;;5091494;28;20020;-88
2022/04/25 12:38:14;;;;;;;;;;;;;;;;;;5091178;28;19932;-74
2022/04/25 12:40:40;;;;;;;;;;;;;;;;;;5089879;28;19957;-89
2022/04/25 12:43:06;;;;;;;;;;;;;;;;;;5090015;28;19939;-72
2022/04/25 12:45:32;;;;;;;;;;;;;;;;;;5090173;28;19978;-70
2022/04/25 12:47:58;;;;;;;;;;;;;;;;;;5091596;28;20011;-74
2022/04/25 12:50:24;;;;;;;;;;;;;;;;;;5088491;28;19924;-74
2022/04/25 12:52:50;;;;;;;;;;;;;;;;;;5088454;28;19924;-76
2022/04/25 12:55:16;;;;;;;;;;;;;;;;;;5091902;28;19944;-68
2022/04/25 12:57:42;;;;;;;;;;;;;;;;;;5089802;28;19958;-70
2022/04/25 13:00:08;;;;;;;;;;;;;;;;;;5090842;28;20004;-72
2022/04/25 13:02:37;;;;;;;;;;;;;;;;;;5090282;28;19972;-70
2022/04/25 13:05:03;;;;;;;;;;;;;;;;;;5082460;28;19924;-76
2022/04/25 13:07:30;;;;;;;;;;;;;;;;;;5121476;27;19969;-74
2022/04/25 13:09:56;;;;;;;;;;;;;;;;;;5089206;28;19924;-72
2022/04/25 13:12:23;;;;;;;;;;;;;;;;;;5090701;28;19928;-70
2022/04/25 13:14:49;;;;;;;;;;;;;;;;;;5090814;28;20023;-72
2022/04/25 13:17:15;;;;;;;;;;;;;;;;;;5089890;28;20015;-67
2022/04/25 13:19:41;;;;;;;;;;;;;;;;;;5091576;28;19932;-71
2022/04/25 13:22:07;;;;;;;;;;;;;;;;;;5090809;28;19924;-73
2022/04/25 13:24:33;;;;;;;;;;;;;;;;;;5090100;28;19982;-69
2022/04/25 13:26:59;;;;;;;;;;;;;;;;;;5088426;28;20016;-68
2022/04/25 13:29:24;;;;;;;;;;;;;;;;;;5091306;28;19989;-72
2022/04/25 13:31:50;;;;;;;;;;;;;;;;;;5090741;28;19947;-74
2022/04/25 13:34:16;;;;;;;;;;;;;;;;;;5091209;28;20037;-68
2022/04/25 13:36:42;;;;;;;;;;;;;;;;;;5090659;28;19935;-68
2022/04/25 13:39:08;;;;;;;;;;;;;;;;;;5089432;28;19994;-68
2022/04/25 13:41:34;;;;;;;;;;;;;;;;;;5091056;28;20018;-76
2022/04/25 13:44:04;;;;;;;;;;;;;;;;;;5091111;28;19992;-71
2022/04/25 13:46:31;;;;;;;;;;;;;;;;;;5091586;28;19999;-73
2022/04/25 13:48:56;;;;;;;;;;;;;;;;;;5089077;28;19924;-74
2022/04/25 13:51:22;;;;;;;;;;;;;;;;;;5090602;28;20115;-73
2022/04/25 13:53:48;;;;;;;;;;;;;;;;;;5090398;28;19968;-75
2022/04/25 13:56:14;;;;;;;;;;;;;;;;;;5088706;28;19928;-69
2022/04/25 13:58:40;;;;;;;;;;;;;;;;;;5089433;28;19982;-77
2022/04/25 14:01:06;;;;;;;;;;;;;;;;;;5090081;28;20325;-74
2022/04/25 14:03:32;;;;;;;;;;;;;;;;;;5090413;28;19968;-70
2022/04/25 14:05:58;;;;;;;;;;;;;;;;;;5089491;28;19951;-81
2022/04/25 14:08:25;;;;;;;;;;;;;;;;;;5090743;28;19977;-72
2022/04/25 14:10:52;;;;;;;;;;;;;;;;;;5089493;28;20451;-73
2022/04/25 14:13:19;;;;;;;;;;;;;;;;;;5089997;28;20064;-74
2022/04/25 14:15:45;;;;;;;;;;;;;;;;;;5090851;28;20048;-74
2022/04/25 14:18:11;;;;;;;;;;;;;;;;;;5089819;28;19932;-72
2022/04/25 14:20:37;;;;;;;;;;;;;;;;;;5089124;28;20326;-72
2022/04/25 14:23:02;;;;;;;;;;;;;;;;;;5087867;28;19964;-83
2022/04/25 14:25:28;;;;;;;;;;;;;;;;;;5071594;28;19936;-72
2022/04/25 14:27:54;;;;;;;;;;;;;;;;;;5089804;28;20026;-74
2022/04/25 14:30:20;;;;;;;;;;;;;;;;;;5087281;28;20026;-70
2022/04/25 14:32:46;;;;;;;;;;;;;;;;;;5089619;28;20015;-71
2022/04/25 14:35:12;;;;;;;;;;;;;;;;;;5087430;28;19938;-71
2022/04/25 14:37:38;;;;;;;;;;;;;;;;;;5121872;27;20316;-72
2022/04/25 14:40:04;;;;;;;;;;;;;;;;;;5089394;28;19932;-73
2022/04/25 14:42:30;;;;;;;;;;;;;;;;;;5089719;28;20013;-66
2022/04/25 14:44:56;;;;;;;;;;;;;;;;;;5089412;28;20221;-69
2022/04/25 14:47:22;;;;;;;;;;;;;;;;;;5103155;28;20122;-66
2022/04/25 14:55:20;;;;;;;;;;;;;;;;;;5089201;28;19925;-74
2022/04/25 14:57:48;;;;;;;;;;;;;;;;;;5084874;28;19964;-70
2022/04/25 15:00:15;;;;;;;;;;;;;;;;;;5088923;28;20418;-68
2022/04/25 15:02:41;;;;;;;;;;;;;;;;;;5089777;28;19924;-69
2022/04/25 15:05:07;;;;;;;;;;;;;;;;;;5089229;28;19924;-68
2022/04/25 15:07:33;;;;;;;;;;;;;;;;;;5086858;28;20133;-69
2022/04/25 15:09:59;;;;;;;;;;;;;;;;;;5090153;28;19935;-69
2022/04/25 15:12:25;;;;;;;;;;;;;;;;;;5087894;28;19967;-69
2022/04/25 15:14:51;;;;;;;;;;;;;;;;;;5122686;27;19925;-69
2022/04/25 15:17:17;;;;;;;;;;;;;;;;;;5089591;28;20044;-68
2022/04/25 15:19:43;;;;;;;;;;;;;;;;;;5091156;28;19928;-68
2022/04/25 15:22:09;;;;;;;;;;;;;;;;;;5089733;28;19979;-68
2022/04/25 15:24:35;;;;;;;;;;;;;;;;;;5087715;28;20298;-69
2022/04/25 15:27:01;;;;;;;;;;;;;;;;;;5088760;28;19928;-73
2022/04/25 15:29:27;;;;;;;;;;;;;;;;;;5086966;28;19935;-73
2022/04/25 15:31:53;;;;;;;;;;;;;;;;;;5088814;28;19986;-71
2022/04/25 15:34:18;;;;;;;;;;;;;;;;;;5087288;28;19966;-71
2022/04/25 15:36:44;;;;;;;;;;;;;;;;;;5088521;28;19946;-69
2022/04/25 15:39:10;;;;;;;;;;;;;;;;;;5087950;28;19924;-73
2022/04/25 15:41:36;;;;;;;;;;;;;;;;;;5088309;28;19928;-71
2022/04/25 15:44:02;;;;;;;;;;;;;;;;;;5084813;28;19943;-68
2022/04/25 15:46:28;;;;;;;;;;;;;;;;;;5088016;28;19931;-67
2022/04/25 15:48:54;;;;;;;;;;;;;;;;;;5087970;28;19924;-71
2022/04/25 15:51:20;;;;;;;;;;;;;;;;;;5086867;28;19942;-67
2022/04/25 15:59:15;;;;;;;;;;;;;;;;;;5089767;28;19951;-74
2022/04/25 16:01:41;;;;;;;;;;;;;;;;;;5090724;28;19940;-70
2022/04/25 16:04:08;;;;;;;;;;;;;;;;;;5091802;28;20015;-72
2022/04/25 16:06:34;;;;;;;;;;;;;;;;;;5090899;28;20060;-72
2022/04/25 16:09:00;;;;;;;;;;;;;;;;;;5108001;28;20061;-75
2022/04/25 16:11:26;;;;;;;;;;;;;;;;;;5090564;28;19939;-72
2022/04/25 16:13:53;;;;;;;;;;;;;;;;;;5092304;28;19924;-70
2022/04/25 16:16:19;;;;;;;;;;;;;;;;;;5090428;28;19924;-71
2022/04/25 16:18:45;;;;;;;;;;;;;;;;;;5090957;28;19989;-68
2022/04/25 16:21:11;;;;;;;;;;;;;;;;;;5090804;28;19924;-71
2022/04/25 16:23:37;;;;;;;;;;;;;;;;;;5090903;28;19981;-72
2022/04/25 16:26:05;;;;;;;;;;;;;;;;;;5087193;28;19935;-72
2022/04/25 16:28:31;;;;;;;;;;;;;;;;;;5086694;28;20099;-74
2022/04/25 16:30:57;;;;;;;;;;;;;;;;;;5087430;28;20384;-73
2022/04/25 16:33:23;;;;;;;;;;;;;;;;;;5088262;28;20328;-72
2022/04/25 16:35:49;;;;;;;;;;;;;;;;;;5089362;28;19993;-69
2022/04/25 16:38:15;;;;;;;;;;;;;;;;;;5084963;28;20366;-71
2022/04/25 16:40:42;;;;;;;;;;;;;;;;;;5091097;28;19924;-69
2022/04/25 16:43:09;;;;;;;;;;;;;;;;;;5090473;28;19993;-71
2022/04/25 16:45:35;;;;;;;;;;;;;;;;;;5090436;28;19932;-76
2022/04/25 16:48:01;;;;;;;;;;;;;;;;;;5093542;28;20011;-71
2022/04/25 16:50:27;;;;;;;;;;;;;;;;;;5110931;28;19935;-69
2022/04/25 16:52:57;;;;;;;;;;;;;;;;;;5098177;28;20109;-71
2022/04/25 16:55:23;;;;;;;;;;;;;;;;;;5088049;28;20390;-68
2022/04/25 16:57:49;;;;;;;;;;;;;;;;;;5090250;28;20023;-68
2022/04/25 17:00:15;;;;;;;;;;;;;;;;;;5089240;28;19924;-67
2022/04/25 17:02:41;;;;;;;;;;;;;;;;;;5089222;28;19924;-71
2022/04/25 17:05:07;;;;;;;;;;;;;;;;;;5088982;28;19942;-69
2022/04/25 17:07:33;;;;;;;;;;;;;;;;;;5090564;28;19996;-71
2022/04/25 17:09:59;;;;;;;;;;;;;;;;;;5090945;28;19979;-67
2022/04/25 17:12:25;;;;;;;;;;;;;;;;;;5086287;28;20380;-69
2022/04/25 17:14:51;;;;;;;;;;;;;;;;;;5118968;27;20401;-67
2022/04/25 17:17:18;;;;;;;;;;;;;;;;;;5088164;28;19977;-66
2022/04/25 17:19:44;;;;;;;;;;;;;;;;;;5088873;28;20376;-68
2022/04/25 17:22:10;;;;;;;;;;;;;;;;;;5091411;28;19928;-68
2022/04/25 17:24:36;;;;;;;;;;;;;;;;;;5086160;28;20359;-69
2022/04/25 17:27:02;;;;;;;;;;;;;;;;;;5091677;28;20325;-71